sensor_id;sensor_type;location;lat;lon;timestamp;P1;durP1;ratioP1;P2;durP2;ratioP2
57337;SDS011;43173;50.980;18.204;2022-12-19T00:01:04;59.60;;;21.50;;
57337;SDS011;43173;50.980;18.204;2022-12-19T00:03:33;52.60;;;20.70;;
57337;SDS011;43173;50.980;18.204;2022-12-19T00:06:00;61.20;;;23.30;;
57337;SDS011;43173;50.980;18.204;2022-12-19T00:08:27;61.60;;;22.10;;
57337;SDS011;43173;50.980;18.204;2022-12-19T00:10:57;54.10;;;20.70;;
57337;SDS011;43173;50.980;18.204;2022-12-19T00:13:24;63.70;;;23.00;;
57337;SDS011;43173;50.980;18.204;2022-12-19T00:15:51;66.30;;;22.00;;
57337;SDS011;43173;50.980;18.204;2022-12-19T00:18:17;65.90;;;21.30;;
57337;SDS011;43173;50.980;18.204;2022-12-19T00:20:43;60.50;;;22.00;;
57337;SDS011;43173;50.980;18.204;2022-12-19T00:23:09;61.50;;;21.60;;
57337;SDS011;43173;50.980;18.204;2022-12-19T00:25:35;51.20;;;21.60;;
57337;SDS011;43173;50.980;18.204;2022-12-19T00:28:04;55.20;;;20.90;;
57337;SDS011;43173;50.980;18.204;2022-12-19T00:30:29;62.30;;;22.10;;
57337;SDS011;43173;50.980;18.204;2022-12-19T00:32:55;52.40;;;19.50;;
57337;SDS011;43173;50.980;18.204;2022-12-19T00:35:20;32.90;;;13.00;;
57337;SDS011;43173;50.980;18.204;2022-12-19T00:37:45;62.10;;;21.90;;
57337;SDS011;43173;50.980;18.204;2022-12-19T00:40:11;57.20;;;20.80;;
57337;SDS011;43173;50.980;18.204;2022-12-19T00:42:37;49.10;;;18.10;;
57337;SDS011;43173;50.980;18.204;2022-12-19T00:45:03;49.60;;;18.10;;
57337;SDS011;43173;50.980;18.204;2022-12-19T00:47:28;55.70;;;20.30;;
57337;SDS011;43173;50.980;18.204;2022-12-19T00:49:54;58.30;;;20.40;;
57337;SDS011;43173;50.980;18.204;2022-12-19T00:52:19;62.60;;;21.30;;
57337;SDS011;43173;50.980;18.204;2022-12-19T00:54:45;48.20;;;19.30;;
57337;SDS011;43173;50.980;18.204;2022-12-19T00:57:10;37.20;;;15.40;;
57337;SDS011;43173;50.980;18.204;2022-12-19T00:59:35;39.40;;;16.10;;
57337;SDS011;43173;50.980;18.204;2022-12-19T01:02:01;47.30;;;18.00;;
57337;SDS011;43173;50.980;18.204;2022-12-19T01:04:26;44.20;;;17.20;;
57337;SDS011;43173;50.980;18.204;2022-12-19T01:06:52;29.80;;;12.40;;
57337;SDS011;43173;50.980;18.204;2022-12-19T01:09:18;39.50;;;16.40;;
57337;SDS011;43173;50.980;18.204;2022-12-19T01:11:45;57.20;;;19.70;;
57337;SDS011;43173;50.980;18.204;2022-12-19T01:14:30;32.00;;;12.10;;
57337;SDS011;43173;50.980;18.204;2022-12-19T01:16:55;28.80;;;12.00;;
57337;SDS011;43173;50.980;18.204;2022-12-19T01:19:21;29.10;;;12.10;;
57337;SDS011;43173;50.980;18.204;2022-12-19T01:21:46;20.70;;;9.20;;
57337;SDS011;43173;50.980;18.204;2022-12-19T01:24:12;28.60;;;11.90;;
57337;SDS011;43173;50.980;18.204;2022-12-19T01:26:37;41.20;;;14.00;;
57337;SDS011;43173;50.980;18.204;2022-12-19T01:29:03;53.30;;;18.30;;
57337;SDS011;43173;50.980;18.204;2022-12-19T01:31:29;42.30;;;16.80;;
57337;SDS011;43173;50.980;18.204;2022-12-19T01:33:54;33.50;;;14.20;;
57337;SDS011;43173;50.980;18.204;2022-12-19T01:36:20;50.00;;;18.50;;
57337;SDS011;43173;50.980;18.204;2022-12-19T01:38:45;49.80;;;19.40;;
57337;SDS011;43173;50.980;18.204;2022-12-19T01:41:11;45.40;;;18.30;;
57337;SDS011;43173;50.980;18.204;2022-12-19T01:49:12;48.80;;;17.60;;
57337;SDS011;43173;50.980;18.204;2022-12-19T01:51:58;55.70;;;19.60;;
57337;SDS011;43173;50.980;18.204;2022-12-19T01:54:33;37.90;;;16.20;;
57337;SDS011;43173;50.980;18.204;2022-12-19T01:57:00;35.40;;;12.40;;
57337;SDS011;43173;50.980;18.204;2022-12-19T01:59:32;42.40;;;17.90;;
57337;SDS011;43173;50.980;18.204;2022-12-19T02:04:48;45.50;;;18.50;;
57337;SDS011;43173;50.980;18.204;2022-12-19T02:07:15;38.80;;;15.00;;
57337;SDS011;43173;50.980;18.204;2022-12-19T02:09:50;48.20;;;17.20;;
57337;SDS011;43173;50.980;18.204;2022-12-19T02:12:24;31.20;;;13.00;;
57337;SDS011;43173;50.980;18.204;2022-12-19T02:14:51;28.20;;;9.80;;
57337;SDS011;43173;50.980;18.204;2022-12-19T02:17:20;28.80;;;11.00;;
57337;SDS011;43173;50.980;18.204;2022-12-19T02:19:58;47.20;;;16.00;;
57337;SDS011;43173;50.980;18.204;2022-12-19T02:34:42;36.10;;;13.40;;
57337;SDS011;43173;50.980;18.204;2022-12-19T02:37:12;41.20;;;16.80;;
57337;SDS011;43173;50.980;18.204;2022-12-19T02:39:49;36.00;;;15.70;;
57337;SDS011;43173;50.980;18.204;2022-12-19T02:42:22;20.40;;;11.40;;
57337;SDS011;43173;50.980;18.204;2022-12-19T02:44:51;42.40;;;16.40;;
57337;SDS011;43173;50.980;18.204;2022-12-19T02:47:18;27.50;;;12.40;;
57337;SDS011;43173;50.980;18.204;2022-12-19T02:49:45;18.10;;;8.10;;
57337;SDS011;43173;50.980;18.204;2022-12-19T02:52:39;41.80;;;15.00;;
57337;SDS011;43173;50.980;18.204;2022-12-19T02:54:58;35.60;;;14.30;;
57337;SDS011;43173;50.980;18.204;2022-12-19T03:00:27;45.80;;;16.50;;
57337;SDS011;43173;50.980;18.204;2022-12-19T03:05:41;39.70;;;15.00;;
57337;SDS011;43173;50.980;18.204;2022-12-19T03:11:11;29.20;;;10.80;;
57337;SDS011;43173;50.980;18.204;2022-12-19T03:13:41;54.60;;;19.80;;
57337;SDS011;43173;50.980;18.204;2022-12-19T03:16:12;56.30;;;18.90;;
57337;SDS011;43173;50.980;18.204;2022-12-19T03:18:39;46.40;;;17.10;;
57337;SDS011;43173;50.980;18.204;2022-12-19T03:23:40;51.90;;;19.10;;
57337;SDS011;43173;50.980;18.204;2022-12-19T03:26:10;52.60;;;19.30;;
57337;SDS011;43173;50.980;18.204;2022-12-19T03:28:44;31.40;;;13.80;;
57337;SDS011;43173;50.980;18.204;2022-12-19T03:31:14;28.60;;;13.60;;
57337;SDS011;43173;50.980;18.204;2022-12-19T03:33:41;47.20;;;16.30;;
57337;SDS011;43173;50.980;18.204;2022-12-19T03:36:09;38.70;;;14.50;;
57337;SDS011;43173;50.980;18.204;2022-12-19T03:38:37;35.70;;;14.20;;
57337;SDS011;43173;50.980;18.204;2022-12-19T03:41:03;30.30;;;13.60;;
57337;SDS011;43173;50.980;18.204;2022-12-19T03:43:31;31.40;;;13.30;;
57337;SDS011;43173;50.980;18.204;2022-12-19T03:46:17;25.60;;;11.60;;
57337;SDS011;43173;50.980;18.204;2022-12-19T03:48:49;41.70;;;14.90;;
57337;SDS011;43173;50.980;18.204;2022-12-19T03:53:56;23.10;;;12.00;;
57337;SDS011;43173;50.980;18.204;2022-12-19T04:02:16;40.90;;;15.30;;
57337;SDS011;43173;50.980;18.204;2022-12-19T04:04:43;41.30;;;13.50;;
57337;SDS011;43173;50.980;18.204;2022-12-19T04:07:10;30.60;;;12.60;;
57337;SDS011;43173;50.980;18.204;2022-12-19T04:09:37;35.50;;;14.70;;
57337;SDS011;43173;50.980;18.204;2022-12-19T04:12:07;25.30;;;12.30;;
57337;SDS011;43173;50.980;18.204;2022-12-19T04:14:40;37.60;;;15.90;;
57337;SDS011;43173;50.980;18.204;2022-12-19T04:22:38;18.60;;;9.50;;
57337;SDS011;43173;50.980;18.204;2022-12-19T04:25:06;29.80;;;11.80;;
57337;SDS011;43173;50.980;18.204;2022-12-19T04:27:37;26.50;;;11.90;;
57337;SDS011;43173;50.980;18.204;2022-12-19T04:30:07;21.90;;;11.50;;
57337;SDS011;43173;50.980;18.204;2022-12-19T04:32:34;43.80;;;16.80;;
57337;SDS011;43173;50.980;18.204;2022-12-19T04:35:00;30.50;;;12.90;;
57337;SDS011;43173;50.980;18.204;2022-12-19T04:37:26;37.10;;;15.80;;
57337;SDS011;43173;50.980;18.204;2022-12-19T04:39:53;30.10;;;12.90;;
57337;SDS011;43173;50.980;18.204;2022-12-19T04:42:19;22.80;;;10.90;;
57337;SDS011;43173;50.980;18.204;2022-12-19T04:44:44;41.20;;;16.40;;
57337;SDS011;43173;50.980;18.204;2022-12-19T04:47:10;42.10;;;16.90;;
57337;SDS011;43173;50.980;18.204;2022-12-19T04:49:36;41.90;;;17.20;;
57337;SDS011;43173;50.980;18.204;2022-12-19T04:52:01;28.40;;;14.10;;
57337;SDS011;43173;50.980;18.204;2022-12-19T04:54:27;44.50;;;18.20;;
57337;SDS011;43173;50.980;18.204;2022-12-19T04:56:52;20.70;;;10.90;;
57337;SDS011;43173;50.980;18.204;2022-12-19T04:59:18;39.70;;;16.50;;
57337;SDS011;43173;50.980;18.204;2022-12-19T05:01:44;34.00;;;14.70;;
57337;SDS011;43173;50.980;18.204;2022-12-19T05:04:09;45.20;;;17.60;;
57337;SDS011;43173;50.980;18.204;2022-12-19T05:06:35;19.00;;;8.80;;
57337;SDS011;43173;50.980;18.204;2022-12-19T05:09:02;20.50;;;9.40;;
57337;SDS011;43173;50.980;18.204;2022-12-19T05:11:28;28.20;;;10.80;;
57337;SDS011;43173;50.980;18.204;2022-12-19T05:13:53;37.10;;;16.00;;
57337;SDS011;43173;50.980;18.204;2022-12-19T05:16:18;32.80;;;13.40;;
57337;SDS011;43173;50.980;18.204;2022-12-19T05:18:44;22.50;;;13.00;;
57337;SDS011;43173;50.980;18.204;2022-12-19T05:21:09;18.20;;;9.50;;
57337;SDS011;43173;50.980;18.204;2022-12-19T05:23:35;27.90;;;12.20;;
57337;SDS011;43173;50.980;18.204;2022-12-19T05:26:02;23.90;;;10.30;;
57337;SDS011;43173;50.980;18.204;2022-12-19T05:28:29;29.30;;;10.40;;
57337;SDS011;43173;50.980;18.204;2022-12-19T05:31:06;28.10;;;12.50;;
57337;SDS011;43173;50.980;18.204;2022-12-19T05:33:34;24.70;;;10.60;;
57337;SDS011;43173;50.980;18.204;2022-12-19T05:36:00;20.40;;;8.30;;
57337;SDS011;43173;50.980;18.204;2022-12-19T05:38:26;32.60;;;11.70;;
57337;SDS011;43173;50.980;18.204;2022-12-19T05:40:52;39.70;;;15.90;;
57337;SDS011;43173;50.980;18.204;2022-12-19T05:43:17;38.40;;;16.20;;
57337;SDS011;43173;50.980;18.204;2022-12-19T05:45:43;34.40;;;14.00;;
57337;SDS011;43173;50.980;18.204;2022-12-19T05:48:08;29.70;;;13.70;;
57337;SDS011;43173;50.980;18.204;2022-12-19T05:50:34;38.00;;;17.50;;
57337;SDS011;43173;50.980;18.204;2022-12-19T05:52:59;35.70;;;15.10;;
57337;SDS011;43173;50.980;18.204;2022-12-19T05:55:25;54.50;;;21.20;;
57337;SDS011;43173;50.980;18.204;2022-12-19T05:57:50;38.00;;;16.70;;
57337;SDS011;43173;50.980;18.204;2022-12-19T06:00:16;45.20;;;20.00;;
57337;SDS011;43173;50.980;18.204;2022-12-19T06:02:42;40.10;;;17.50;;
57337;SDS011;43173;50.980;18.204;2022-12-19T06:05:07;41.70;;;16.50;;
57337;SDS011;43173;50.980;18.204;2022-12-19T06:07:33;39.70;;;16.30;;
57337;SDS011;43173;50.980;18.204;2022-12-19T06:09:59;29.20;;;12.40;;
57337;SDS011;43173;50.980;18.204;2022-12-19T06:12:25;41.40;;;14.30;;
57337;SDS011;43173;50.980;18.204;2022-12-19T06:14:51;32.60;;;13.10;;
57337;SDS011;43173;50.980;18.204;2022-12-19T06:17:16;34.10;;;14.00;;
57337;SDS011;43173;50.980;18.204;2022-12-19T06:19:42;15.90;;;8.20;;
57337;SDS011;43173;50.980;18.204;2022-12-19T06:22:07;33.40;;;11.50;;
57337;SDS011;43173;50.980;18.204;2022-12-19T06:24:33;30.50;;;13.50;;
57337;SDS011;43173;50.980;18.204;2022-12-19T06:26:58;35.60;;;12.30;;
57337;SDS011;43173;50.980;18.204;2022-12-19T06:29:24;31.80;;;12.00;;
57337;SDS011;43173;50.980;18.204;2022-12-19T06:31:49;28.30;;;12.70;;
57337;SDS011;43173;50.980;18.204;2022-12-19T06:34:15;19.10;;;9.70;;
57337;SDS011;43173;50.980;18.204;2022-12-19T06:36:40;21.60;;;9.30;;
57337;SDS011;43173;50.980;18.204;2022-12-19T06:39:06;23.00;;;10.50;;
57337;SDS011;43173;50.980;18.204;2022-12-19T06:41:31;38.90;;;15.40;;
57337;SDS011;43173;50.980;18.204;2022-12-19T06:44:16;28.90;;;13.90;;
57337;SDS011;43173;50.980;18.204;2022-12-19T06:46:42;23.00;;;10.70;;
57337;SDS011;43173;50.980;18.204;2022-12-19T06:49:08;21.80;;;10.80;;
57337;SDS011;43173;50.980;18.204;2022-12-19T06:51:34;24.60;;;9.30;;
57337;SDS011;43173;50.980;18.204;2022-12-19T06:54:00;26.60;;;11.20;;
57337;SDS011;43173;50.980;18.204;2022-12-19T06:56:26;27.60;;;12.50;;
57337;SDS011;43173;50.980;18.204;2022-12-19T06:58:52;12.00;;;6.90;;
57337;SDS011;43173;50.980;18.204;2022-12-19T07:01:23;31.40;;;12.20;;
57337;SDS011;43173;50.980;18.204;2022-12-19T07:03:58;29.80;;;12.10;;
57337;SDS011;43173;50.980;18.204;2022-12-19T07:06:24;32.80;;;13.20;;
57337;SDS011;43173;50.980;18.204;2022-12-19T07:08:50;18.90;;;8.90;;
57337;SDS011;43173;50.980;18.204;2022-12-19T07:11:15;15.90;;;7.90;;
57337;SDS011;43173;50.980;18.204;2022-12-19T07:13:41;21.80;;;8.90;;
57337;SDS011;43173;50.980;18.204;2022-12-19T07:16:06;27.60;;;11.30;;
57337;SDS011;43173;50.980;18.204;2022-12-19T07:18:36;25.50;;;9.80;;
57337;SDS011;43173;50.980;18.204;2022-12-19T07:21:03;20.10;;;10.00;;
57337;SDS011;43173;50.980;18.204;2022-12-19T07:23:29;22.70;;;9.30;;
57337;SDS011;43173;50.980;18.204;2022-12-19T07:25:55;24.80;;;10.30;;
57337;SDS011;43173;50.980;18.204;2022-12-19T07:28:21;27.80;;;10.10;;
57337;SDS011;43173;50.980;18.204;2022-12-19T07:30:47;9.40;;;5.40;;
57337;SDS011;43173;50.980;18.204;2022-12-19T07:33:12;24.40;;;11.80;;
57337;SDS011;43173;50.980;18.204;2022-12-19T07:35:38;29.10;;;12.70;;
57337;SDS011;43173;50.980;18.204;2022-12-19T07:38:04;27.30;;;11.30;;
57337;SDS011;43173;50.980;18.204;2022-12-19T07:40:30;19.40;;;9.40;;
57337;SDS011;43173;50.980;18.204;2022-12-19T07:43:03;26.10;;;12.30;;
57337;SDS011;43173;50.980;18.204;2022-12-19T07:45:30;32.30;;;12.70;;
57337;SDS011;43173;50.980;18.204;2022-12-19T07:47:58;35.90;;;14.90;;
57337;SDS011;43173;50.980;18.204;2022-12-19T07:50:25;29.30;;;12.80;;
57337;SDS011;43173;50.980;18.204;2022-12-19T07:52:50;15.70;;;9.10;;
57337;SDS011;43173;50.980;18.204;2022-12-19T07:55:16;27.70;;;12.20;;
57337;SDS011;43173;50.980;18.204;2022-12-19T07:57:41;22.20;;;9.70;;
57337;SDS011;43173;50.980;18.204;2022-12-19T08:00:07;26.20;;;10.70;;
57337;SDS011;43173;50.980;18.204;2022-12-19T08:02:33;27.00;;;13.10;;
57337;SDS011;43173;50.980;18.204;2022-12-19T08:05:00;26.60;;;11.90;;
57337;SDS011;43173;50.980;18.204;2022-12-19T08:07:25;32.90;;;12.20;;
57337;SDS011;43173;50.980;18.204;2022-12-19T08:09:51;31.30;;;12.50;;
57337;SDS011;43173;50.980;18.204;2022-12-19T08:12:16;22.60;;;10.50;;
57337;SDS011;43173;50.980;18.204;2022-12-19T08:14:42;24.00;;;9.70;;
57337;SDS011;43173;50.980;18.204;2022-12-19T08:17:09;21.50;;;9.60;;
57337;SDS011;43173;50.980;18.204;2022-12-19T08:19:34;24.10;;;10.80;;
57337;SDS011;43173;50.980;18.204;2022-12-19T08:22:00;19.70;;;10.10;;
57337;SDS011;43173;50.980;18.204;2022-12-19T08:24:25;24.20;;;9.80;;
57337;SDS011;43173;50.980;18.204;2022-12-19T08:26:51;18.20;;;8.40;;
57337;SDS011;43173;50.980;18.204;2022-12-19T08:29:16;25.40;;;10.70;;
57337;SDS011;43173;50.980;18.204;2022-12-19T08:31:42;23.80;;;11.10;;
57337;SDS011;43173;50.980;18.204;2022-12-19T08:34:07;23.50;;;9.30;;
57337;SDS011;43173;50.980;18.204;2022-12-19T08:36:33;26.40;;;11.90;;
57337;SDS011;43173;50.980;18.204;2022-12-19T08:38:59;28.70;;;11.20;;
57337;SDS011;43173;50.980;18.204;2022-12-19T08:41:24;19.30;;;8.70;;
57337;SDS011;43173;50.980;18.204;2022-12-19T08:43:50;27.50;;;11.50;;
57337;SDS011;43173;50.980;18.204;2022-12-19T08:46:18;19.50;;;9.70;;
57337;SDS011;43173;50.980;18.204;2022-12-19T08:48:44;31.50;;;12.70;;
57337;SDS011;43173;50.980;18.204;2022-12-19T08:51:11;32.00;;;14.30;;
57337;SDS011;43173;50.980;18.204;2022-12-19T08:53:38;25.90;;;10.10;;
57337;SDS011;43173;50.980;18.204;2022-12-19T08:58:38;33.40;;;12.40;;
57337;SDS011;43173;50.980;18.204;2022-12-19T09:01:05;31.10;;;12.20;;
57337;SDS011;43173;50.980;18.204;2022-12-19T09:03:35;27.50;;;11.60;;
57337;SDS011;43173;50.980;18.204;2022-12-19T09:06:04;22.00;;;8.10;;
57337;SDS011;43173;50.980;18.204;2022-12-19T09:08:31;21.70;;;9.00;;
57337;SDS011;43173;50.980;18.204;2022-12-19T09:10:58;15.60;;;7.00;;
57337;SDS011;43173;50.980;18.204;2022-12-19T09:13:25;22.70;;;9.50;;
57337;SDS011;43173;50.980;18.204;2022-12-19T09:16:25;25.20;;;11.10;;
57337;SDS011;43173;50.980;18.204;2022-12-19T09:18:48;26.70;;;10.60;;
57337;SDS011;43173;50.980;18.204;2022-12-19T09:21:15;20.30;;;9.40;;
57337;SDS011;43173;50.980;18.204;2022-12-19T09:23:42;30.60;;;11.50;;
57337;SDS011;43173;50.980;18.204;2022-12-19T09:26:12;34.10;;;15.30;;
57337;SDS011;43173;50.980;18.204;2022-12-19T09:28:38;29.30;;;12.00;;
57337;SDS011;43173;50.980;18.204;2022-12-19T09:33:50;32.10;;;12.40;;
57337;SDS011;43173;50.980;18.204;2022-12-19T09:36:17;27.90;;;12.10;;
57337;SDS011;43173;50.980;18.204;2022-12-19T09:38:47;32.40;;;12.60;;
57337;SDS011;43173;50.980;18.204;2022-12-19T09:49:21;35.40;;;13.30;;
57337;SDS011;43173;50.980;18.204;2022-12-19T09:57:56;27.50;;;12.30;;
57337;SDS011;43173;50.980;18.204;2022-12-19T10:00:04;34.40;;;13.70;;
57337;SDS011;43173;50.980;18.204;2022-12-19T10:05:33;28.40;;;12.00;;
57337;SDS011;43173;50.980;18.204;2022-12-19T10:08:08;37.10;;;13.80;;
57337;SDS011;43173;50.980;18.204;2022-12-19T10:33:51;23.30;;;10.50;;
57337;SDS011;43173;50.980;18.204;2022-12-19T10:36:18;16.30;;;8.70;;
57337;SDS011;43173;50.980;18.204;2022-12-19T10:45:52;26.40;;;13.10;;
57337;SDS011;43173;50.980;18.204;2022-12-19T10:48:20;28.00;;;12.40;;
57337;SDS011;43173;50.980;18.204;2022-12-19T10:50:47;28.10;;;12.60;;
57337;SDS011;43173;50.980;18.204;2022-12-19T10:53:13;19.20;;;8.80;;
57337;SDS011;43173;50.980;18.204;2022-12-19T10:58:36;26.90;;;10.30;;
57337;SDS011;43173;50.980;18.204;2022-12-19T11:01:04;28.10;;;12.90;;
57337;SDS011;43173;50.980;18.204;2022-12-19T11:03:38;26.90;;;12.90;;
57337;SDS011;43173;50.980;18.204;2022-12-19T11:06:35;24.10;;;9.90;;
57337;SDS011;43173;50.980;18.204;2022-12-19T11:11:48;20.80;;;8.80;;
57337;SDS011;43173;50.980;18.204;2022-12-19T11:14:24;26.10;;;9.30;;
57337;SDS011;43173;50.980;18.204;2022-12-19T11:16:52;18.80;;;9.10;;
57337;SDS011;43173;50.980;18.204;2022-12-19T11:19:23;27.00;;;10.60;;
57337;SDS011;43173;50.980;18.204;2022-12-19T11:21:50;43.80;;;17.00;;
57337;SDS011;43173;50.980;18.204;2022-12-19T11:29:58;25.90;;;11.90;;
57337;SDS011;43173;50.980;18.204;2022-12-19T11:32:30;22.50;;;9.90;;
57337;SDS011;43173;50.980;18.204;2022-12-19T11:34:59;29.00;;;10.70;;
57337;SDS011;43173;50.980;18.204;2022-12-19T11:43:14;43.30;;;14.00;;
57337;SDS011;43173;50.980;18.204;2022-12-19T11:45:47;34.60;;;12.10;;
57337;SDS011;43173;50.980;18.204;2022-12-19T11:48:20;24.40;;;10.60;;
57337;SDS011;43173;50.980;18.204;2022-12-19T11:53:47;43.80;;;17.30;;
57337;SDS011;43173;50.980;18.204;2022-12-19T11:56:18;27.30;;;12.90;;
57337;SDS011;43173;50.980;18.204;2022-12-19T11:58:47;55.90;;;19.70;;
57337;SDS011;43173;50.980;18.204;2022-12-19T12:01:19;30.30;;;13.00;;
57337;SDS011;43173;50.980;18.204;2022-12-19T12:04:15;25.30;;;12.50;;
57337;SDS011;43173;50.980;18.204;2022-12-19T12:07:02;29.10;;;10.50;;
57337;SDS011;43173;50.980;18.204;2022-12-19T12:24:00;46.10;;;19.50;;
57337;SDS011;43173;50.980;18.204;2022-12-19T12:29:37;28.50;;;13.00;;
57337;SDS011;43173;50.980;18.204;2022-12-19T12:32:25;24.60;;;11.20;;
57337;SDS011;43173;50.980;18.204;2022-12-19T12:45:32;27.60;;;11.40;;
57337;SDS011;43173;50.980;18.204;2022-12-19T12:48:03;27.20;;;12.90;;
57337;SDS011;43173;50.980;18.204;2022-12-19T12:50:38;14.30;;;7.10;;
57337;SDS011;43173;50.980;18.204;2022-12-19T12:53:06;20.50;;;8.40;;
57337;SDS011;43173;50.980;18.204;2022-12-19T12:55:36;36.90;;;15.20;;
57337;SDS011;43173;50.980;18.204;2022-12-19T13:04:02;26.00;;;11.00;;
57337;SDS011;43173;50.980;18.204;2022-12-19T13:06:32;23.20;;;10.40;;
57337;SDS011;43173;50.980;18.204;2022-12-19T13:09:22;34.80;;;16.10;;
57337;SDS011;43173;50.980;18.204;2022-12-19T13:14:44;23.60;;;11.10;;
57337;SDS011;43173;50.980;18.204;2022-12-19T13:20:13;13.40;;;6.90;;
57337;SDS011;43173;50.980;18.204;2022-12-19T13:22:45;15.60;;;7.80;;
57337;SDS011;43173;50.980;18.204;2022-12-19T13:27:55;30.90;;;13.90;;
57337;SDS011;43173;50.980;18.204;2022-12-19T13:30:22;29.80;;;13.70;;
57337;SDS011;43173;50.980;18.204;2022-12-19T13:37:40;28.30;;;12.00;;
57337;SDS011;43173;50.980;18.204;2022-12-19T13:45:57;28.70;;;12.00;;
57337;SDS011;43173;50.980;18.204;2022-12-19T13:48:31;21.40;;;9.10;;
57337;SDS011;43173;50.980;18.204;2022-12-19T13:51:06;31.60;;;12.20;;
57337;SDS011;43173;50.980;18.204;2022-12-19T13:53:35;34.80;;;14.00;;
57337;SDS011;43173;50.980;18.204;2022-12-19T13:56:04;29.70;;;12.30;;
57337;SDS011;43173;50.980;18.204;2022-12-19T13:58:40;33.20;;;11.00;;
57337;SDS011;43173;50.980;18.204;2022-12-19T14:01:30;25.20;;;9.90;;
57337;SDS011;43173;50.980;18.204;2022-12-19T14:03:58;19.80;;;9.00;;
57337;SDS011;43173;50.980;18.204;2022-12-19T14:06:36;26.80;;;11.00;;
57337;SDS011;43173;50.980;18.204;2022-12-19T14:12:01;21.60;;;7.80;;
57337;SDS011;43173;50.980;18.204;2022-12-19T14:14:28;17.30;;;8.60;;
57337;SDS011;43173;50.980;18.204;2022-12-19T14:17:14;26.60;;;11.40;;
57337;SDS011;43173;50.980;18.204;2022-12-19T14:19:48;19.60;;;9.10;;
57337;SDS011;43173;50.980;18.204;2022-12-19T14:30:06;26.50;;;12.40;;
57337;SDS011;43173;50.980;18.204;2022-12-19T14:32:39;25.70;;;10.60;;
57337;SDS011;43173;50.980;18.204;2022-12-19T14:35:06;22.30;;;10.70;;
57337;SDS011;43173;50.980;18.204;2022-12-19T14:37:35;20.90;;;8.90;;
57337;SDS011;43173;50.980;18.204;2022-12-19T14:40:07;28.30;;;12.10;;
57337;SDS011;43173;50.980;18.204;2022-12-19T14:42:43;24.40;;;10.50;;
57337;SDS011;43173;50.980;18.204;2022-12-19T14:45:32;23.00;;;10.30;;
57337;SDS011;43173;50.980;18.204;2022-12-19T14:48:00;25.20;;;11.20;;
57337;SDS011;43173;50.980;18.204;2022-12-19T14:55:40;20.90;;;9.20;;
57337;SDS011;43173;50.980;18.204;2022-12-19T14:58:07;28.30;;;10.80;;
57337;SDS011;43173;50.980;18.204;2022-12-19T15:03:08;19.40;;;9.70;;
57337;SDS011;43173;50.980;18.204;2022-12-19T15:08:07;19.40;;;8.90;;
57337;SDS011;43173;50.980;18.204;2022-12-19T15:10:34;30.00;;;11.50;;
57337;SDS011;43173;50.980;18.204;2022-12-19T15:21:02;21.50;;;10.50;;
57337;SDS011;43173;50.980;18.204;2022-12-19T15:23:29;22.50;;;9.90;;
57337;SDS011;43173;50.980;18.204;2022-12-19T15:25:56;23.40;;;10.50;;
57337;SDS011;43173;50.980;18.204;2022-12-19T15:36:50;21.60;;;10.00;;
57337;SDS011;43173;50.980;18.204;2022-12-19T15:39:17;23.60;;;10.80;;
57337;SDS011;43173;50.980;18.204;2022-12-19T15:41:43;24.40;;;10.70;;
57337;SDS011;43173;50.980;18.204;2022-12-19T15:44:17;24.50;;;10.30;;
57337;SDS011;43173;50.980;18.204;2022-12-19T15:46:47;24.10;;;10.30;;
57337;SDS011;43173;50.980;18.204;2022-12-19T15:49:16;35.50;;;11.50;;
57337;SDS011;43173;50.980;18.204;2022-12-19T15:51:42;22.60;;;11.40;;
57337;SDS011;43173;50.980;18.204;2022-12-19T15:54:10;32.80;;;12.00;;
57337;SDS011;43173;50.980;18.204;2022-12-19T15:56:37;21.10;;;10.80;;
57337;SDS011;43173;50.980;18.204;2022-12-19T15:59:05;24.80;;;13.50;;
57337;SDS011;43173;50.980;18.204;2022-12-19T16:01:42;20.20;;;9.80;;
57337;SDS011;43173;50.980;18.204;2022-12-19T16:04:07;23.80;;;9.60;;
57337;SDS011;43173;50.980;18.204;2022-12-19T16:06:36;33.20;;;11.50;;
57337;SDS011;43173;50.980;18.204;2022-12-19T16:09:08;27.20;;;10.30;;
57337;SDS011;43173;50.980;18.204;2022-12-19T16:11:46;28.50;;;12.60;;
57337;SDS011;43173;50.980;18.204;2022-12-19T16:14:12;21.20;;;9.80;;
57337;SDS011;43173;50.980;18.204;2022-12-19T16:16:38;24.60;;;10.50;;
57337;SDS011;43173;50.980;18.204;2022-12-19T16:19:13;20.90;;;9.90;;
57337;SDS011;43173;50.980;18.204;2022-12-19T16:21:47;22.40;;;9.60;;
57337;SDS011;43173;50.980;18.204;2022-12-19T16:24:13;29.80;;;11.60;;
57337;SDS011;43173;50.980;18.204;2022-12-19T16:26:38;31.40;;;14.20;;
57337;SDS011;43173;50.980;18.204;2022-12-19T16:29:05;26.30;;;12.50;;
57337;SDS011;43173;50.980;18.204;2022-12-19T16:31:42;28.40;;;12.40;;
57337;SDS011;43173;50.980;18.204;2022-12-19T16:34:14;22.30;;;9.20;;
57337;SDS011;43173;50.980;18.204;2022-12-19T16:36:41;25.70;;;11.10;;
57337;SDS011;43173;50.980;18.204;2022-12-19T16:39:07;23.50;;;10.80;;
57337;SDS011;43173;50.980;18.204;2022-12-19T16:41:33;28.80;;;13.70;;
57337;SDS011;43173;50.980;18.204;2022-12-19T16:43:59;23.20;;;9.10;;
57337;SDS011;43173;50.980;18.204;2022-12-19T16:46:25;27.90;;;12.90;;
57337;SDS011;43173;50.980;18.204;2022-12-19T16:48:55;29.40;;;11.80;;
57337;SDS011;43173;50.980;18.204;2022-12-19T16:51:22;27.90;;;12.50;;
57337;SDS011;43173;50.980;18.204;2022-12-19T16:53:50;30.70;;;12.10;;
57337;SDS011;43173;50.980;18.204;2022-12-19T16:56:22;24.40;;;11.90;;
57337;SDS011;43173;50.980;18.204;2022-12-19T16:58:49;27.60;;;11.20;;
57337;SDS011;43173;50.980;18.204;2022-12-19T17:01:15;25.20;;;9.90;;
57337;SDS011;43173;50.980;18.204;2022-12-19T17:03:42;31.40;;;11.70;;
57337;SDS011;43173;50.980;18.204;2022-12-19T17:06:10;24.80;;;10.60;;
57337;SDS011;43173;50.980;18.204;2022-12-19T17:08:37;29.90;;;12.50;;
57337;SDS011;43173;50.980;18.204;2022-12-19T17:11:02;30.60;;;13.30;;
57337;SDS011;43173;50.980;18.204;2022-12-19T17:13:29;24.60;;;8.90;;
57337;SDS011;43173;50.980;18.204;2022-12-19T17:15:55;22.20;;;9.60;;
57337;SDS011;43173;50.980;18.204;2022-12-19T17:18:30;19.20;;;9.50;;
57337;SDS011;43173;50.980;18.204;2022-12-19T17:20:58;20.20;;;8.70;;
57337;SDS011;43173;50.980;18.204;2022-12-19T17:23:24;23.40;;;10.00;;
57337;SDS011;43173;50.980;18.204;2022-12-19T17:25:50;20.60;;;9.70;;
57337;SDS011;43173;50.980;18.204;2022-12-19T17:28:17;26.70;;;12.30;;
57337;SDS011;43173;50.980;18.204;2022-12-19T17:30:44;30.90;;;13.60;;
57337;SDS011;43173;50.980;18.204;2022-12-19T17:33:14;26.50;;;12.20;;
57337;SDS011;43173;50.980;18.204;2022-12-19T17:35:40;26.80;;;11.90;;
57337;SDS011;43173;50.980;18.204;2022-12-19T17:38:14;31.20;;;11.50;;
57337;SDS011;43173;50.980;18.204;2022-12-19T17:40:41;22.20;;;9.80;;
57337;SDS011;43173;50.980;18.204;2022-12-19T17:43:08;27.60;;;11.00;;
57337;SDS011;43173;50.980;18.204;2022-12-19T17:45:34;37.80;;;15.20;;
57337;SDS011;43173;50.980;18.204;2022-12-19T17:48:01;27.80;;;10.30;;